createdAt,value
2019-04-30T00:00:03.922Z,1010.32
2019-04-30T00:01:07.417Z,1010.27
2019-04-30T00:02:05.712Z,1010.32
2019-04-30T00:03:06.595Z,1010.29
2019-04-30T00:04:05.640Z,1010.39
2019-04-30T00:05:05.475Z,1010.24
2019-04-30T00:06:07.212Z,1010.24
2019-04-30T00:07:05.678Z,1010.29
2019-04-30T00:08:05.466Z,1010.22
2019-04-30T00:09:05.428Z,1010.25
2019-04-30T00:10:06.021Z,1010.26
2019-04-30T00:11:05.334Z,1010.24
2019-04-30T00:12:05.534Z,1010.30
2019-04-30T00:13:03.771Z,1010.25
2019-04-30T00:14:05.516Z,1010.24
2019-04-30T00:15:03.746Z,1010.28
2019-04-30T00:16:05.317Z,1010.27
2019-04-30T00:17:03.720Z,1010.22
2019-04-30T00:18:05.419Z,1010.24
2019-04-30T00:19:03.718Z,1010.19
2019-04-30T00:20:05.288Z,1010.21
2019-04-30T00:21:05.488Z,1010.19
2019-04-30T00:22:05.670Z,1010.18
2019-04-30T00:23:05.153Z,1010.21
2019-04-30T00:24:06.351Z,1010.15
2019-04-30T00:25:05.381Z,1010.20
2019-04-30T00:26:06.352Z,1010.20
2019-04-30T00:27:05.147Z,1010.17
2019-04-30T00:28:05.207Z,1010.17
2019-04-30T00:29:05.130Z,1010.25
2019-04-30T00:30:07.323Z,1010.19
2019-04-30T00:31:05.491Z,1010.20
2019-04-30T00:32:04.259Z,1010.20
2019-04-30T00:33:05.652Z,1010.17
2019-04-30T00:34:05.033Z,1010.22
2019-04-30T00:35:03.513Z,1010.18
2019-04-30T00:36:05.013Z,1010.19
2019-04-30T00:37:07.272Z,1010.19
2019-04-30T00:38:05.042Z,1010.15
2019-04-30T00:39:08.875Z,1010.14
2019-04-30T00:40:05.598Z,1010.16
2019-04-30T00:41:06.937Z,1010.15
2019-04-30T00:42:04.920Z,1010.06
2019-04-30T00:43:07.538Z,1010.14
2019-04-30T00:44:05.381Z,1010.10
2019-04-30T00:45:06.659Z,1010.08
2019-04-30T00:46:05.011Z,1010.05
2019-04-30T00:47:05.028Z,1010.04
2019-04-30T00:48:03.400Z,1010.06
2019-04-30T00:49:11.620Z,1010.08
2019-04-30T00:50:05.002Z,1010.06
2019-04-30T00:51:08.941Z,1010.05
2019-04-30T00:52:05.154Z,1010.07
2019-04-30T00:53:05.849Z,1010.09
2019-04-30T00:54:05.703Z,1010.10
2019-04-30T00:55:05.485Z,1010.05
2019-04-30T00:56:05.720Z,1010.05
2019-04-30T00:57:04.523Z,1010.03
2019-04-30T00:58:03.244Z,1010.02
2019-04-30T00:59:07.087Z,1010.02
2019-04-30T01:00:05.015Z,1009.97
2019-04-30T01:01:04.872Z,1009.99
2019-04-30T01:02:03.195Z,1009.97
2019-04-30T01:03:05.861Z,1009.97
2019-04-30T01:04:05.065Z,1009.96
2019-04-30T01:05:05.313Z,1009.93
2019-04-30T01:06:05.392Z,1009.96
2019-04-30T01:07:05.232Z,1009.99
2019-04-30T01:08:04.987Z,1010.00
2019-04-30T01:09:05.381Z,1009.95
2019-04-30T01:10:05.119Z,1010.00
2019-04-30T01:11:06.477Z,1010.04
2019-04-30T01:12:05.498Z,1009.98
2019-04-30T01:13:10.180Z,1009.92
2019-04-30T01:14:04.054Z,1009.95
2019-04-30T01:15:06.738Z,1009.91
2019-04-30T01:16:04.046Z,1009.94
2019-04-30T01:17:03.675Z,1009.93
2019-04-30T01:18:03.004Z,1009.94
2019-04-30T01:19:05.709Z,1009.93
2019-04-30T01:20:03.979Z,1009.93
2019-04-30T01:21:07.312Z,1009.89
2019-04-30T01:22:03.955Z,1009.81
2019-04-30T01:23:07.102Z,1009.92
2019-04-30T01:24:03.932Z,1009.92
2019-04-30T01:25:08.975Z,1009.83
2019-04-30T01:26:03.926Z,1009.85
2019-04-30T01:27:06.888Z,1009.87
2019-04-30T01:28:03.884Z,1009.84
2019-04-30T01:29:02.871Z,1009.84
2019-04-30T01:30:02.861Z,1009.81
2019-04-30T01:31:02.870Z,1009.88
2019-04-30T01:32:02.840Z,1009.84
2019-04-30T01:33:02.826Z,1009.80
2019-04-30T01:34:05.026Z,1009.83
2019-04-30T01:35:03.801Z,1009.87
2019-04-30T01:36:03.947Z,1009.84
2019-04-30T01:37:03.804Z,1009.85
2019-04-30T01:38:04.051Z,1009.80
2019-04-30T01:39:03.762Z,1009.83
2019-04-30T01:40:03.067Z,1009.80
2019-04-30T01:41:02.737Z,1009.82
2019-04-30T01:42:06.946Z,1009.84
2019-04-30T01:43:03.728Z,1009.77
2019-04-30T01:44:03.721Z,1009.74
2019-04-30T01:45:03.693Z,1009.80
2019-04-30T01:46:12.229Z,1009.72
2019-04-30T01:47:03.665Z,1009.76
2019-04-30T01:48:08.771Z,1009.77
2019-04-30T01:49:03.649Z,1009.77
2019-04-30T01:50:04.869Z,1009.78
2019-04-30T01:51:02.621Z,1009.79
2019-04-30T01:52:02.610Z,1009.76
2019-04-30T01:53:04.826Z,1009.76
2019-04-30T01:54:03.584Z,1009.76
2019-04-30T01:55:02.580Z,1009.76
2019-04-30T01:56:02.565Z,1009.79
2019-04-30T01:57:02.553Z,1009.75
2019-04-30T01:58:02.544Z,1009.82
2019-04-30T01:59:02.549Z,1009.79
2019-04-30T02:00:02.519Z,1009.79
2019-04-30T02:01:02.509Z,1009.83
2019-04-30T02:02:02.496Z,1009.74
2019-04-30T02:03:02.488Z,1009.78
2019-04-30T02:04:02.526Z,1009.80
2019-04-30T02:05:02.460Z,1009.80
2019-04-30T02:06:02.449Z,1009.77
2019-04-30T02:07:02.436Z,1009.78
2019-04-30T02:08:02.425Z,1009.86
2019-04-30T02:09:02.411Z,1009.81
2019-04-30T02:10:02.794Z,1009.84
2019-04-30T02:11:02.393Z,1009.77
2019-04-30T02:12:02.378Z,1009.85
2019-04-30T02:13:02.375Z,1009.79
2019-04-30T02:14:02.356Z,1009.81
2019-04-30T02:15:02.344Z,1009.78
2019-04-30T02:16:02.380Z,1009.77
2019-04-30T02:17:02.320Z,1009.76
2019-04-30T02:18:02.317Z,1009.82
2019-04-30T02:19:02.299Z,1009.84
2019-04-30T02:20:02.288Z,1009.83
2019-04-30T02:21:02.298Z,1009.89
2019-04-30T02:22:02.263Z,1009.83
2019-04-30T02:23:02.252Z,1009.88
2019-04-30T02:24:02.239Z,1009.86
2019-04-30T02:25:02.228Z,1009.76
2019-04-30T02:26:02.256Z,1009.81
2019-04-30T02:27:02.207Z,1009.77
2019-04-30T02:28:02.194Z,1009.76
2019-04-30T02:29:02.190Z,1009.77
2019-04-30T02:30:02.833Z,1009.79
2019-04-30T02:31:02.161Z,1009.83
2019-04-30T02:32:02.180Z,1009.78
2019-04-30T02:33:02.137Z,1009.78
2019-04-30T02:34:02.126Z,1009.76
2019-04-30T02:35:02.114Z,1009.80
2019-04-30T02:36:03.670Z,1009.74
2019-04-30T02:37:02.093Z,1009.77
2019-04-30T02:38:02.121Z,1009.78
2019-04-30T02:39:02.770Z,1009.76
2019-04-30T02:40:02.061Z,1009.76
2019-04-30T02:41:02.050Z,1009.75
2019-04-30T02:42:02.040Z,1009.75
2019-04-30T02:43:02.082Z,1009.83
2019-04-30T02:44:02.029Z,1009.77
2019-04-30T02:45:03.887Z,1009.79
2019-04-30T02:46:01.989Z,1009.75
2019-04-30T02:47:01.979Z,1009.75
2019-04-30T02:48:01.964Z,1009.73
2019-04-30T02:49:02.006Z,1009.65
2019-04-30T02:50:14.059Z,1009.74
2019-04-30T02:51:02.926Z,1009.78
2019-04-30T02:52:01.917Z,1009.78
2019-04-30T02:53:02.822Z,1009.89
2019-04-30T02:54:01.913Z,1009.77
2019-04-30T02:55:01.884Z,1009.75
2019-04-30T02:56:02.651Z,1009.70
2019-04-30T02:57:01.864Z,1009.68
2019-04-30T02:58:01.850Z,1009.72
2019-04-30T02:59:03.763Z,1009.85
2019-04-30T03:00:01.830Z,1009.84
2019-04-30T03:01:01.822Z,1009.89
2019-04-30T03:02:01.817Z,1009.76
2019-04-30T03:03:01.791Z,1009.84
2019-04-30T03:04:01.789Z,1009.84
2019-04-30T03:05:01.795Z,1009.82
2019-04-30T03:06:01.756Z,1009.84
2019-04-30T03:07:01.745Z,1009.79
2019-04-30T03:08:01.734Z,1009.84
2019-04-30T03:09:01.723Z,1009.83
2019-04-30T03:10:01.732Z,1009.88
2019-04-30T03:11:01.701Z,1009.81
2019-04-30T03:12:01.689Z,1009.83
2019-04-30T03:13:01.677Z,1009.84
2019-04-30T03:14:01.665Z,1009.84
2019-04-30T03:15:01.658Z,1009.79
2019-04-30T03:16:01.662Z,1009.80
2019-04-30T03:17:01.632Z,1009.79
2019-04-30T03:18:01.637Z,1009.75
2019-04-30T03:19:01.607Z,1009.76
2019-04-30T03:20:03.423Z,1009.68
2019-04-30T03:21:01.615Z,1009.69
2019-04-30T03:22:01.571Z,1009.66
2019-04-30T03:23:02.421Z,1009.70
2019-04-30T03:24:01.552Z,1009.75
2019-04-30T03:25:01.537Z,1009.70
2019-04-30T03:26:01.525Z,1009.72
2019-04-30T03:27:01.537Z,1009.69
2019-04-30T03:28:01.504Z,1009.81
2019-04-30T03:29:01.492Z,1009.76
2019-04-30T03:30:01.490Z,1009.71
2019-04-30T03:31:04.510Z,1009.71
2019-04-30T03:32:03.364Z,1009.64
2019-04-30T03:33:02.994Z,1009.65
2019-04-30T03:34:02.184Z,1009.60
2019-04-30T03:35:03.065Z,1009.63
2019-04-30T03:36:02.549Z,1009.60
2019-04-30T03:37:02.074Z,1009.65
2019-04-30T03:38:01.410Z,1009.62
2019-04-30T03:39:01.378Z,1009.61
2019-04-30T03:40:01.365Z,1009.62
2019-04-30T03:41:01.356Z,1009.62
2019-04-30T03:42:01.343Z,1009.62
2019-04-30T03:43:03.203Z,1009.68
2019-04-30T03:44:16.740Z,1009.58
2019-04-30T03:45:02.308Z,1009.55
2019-04-30T03:46:02.870Z,1009.61
2019-04-30T03:47:01.297Z,1009.56
2019-04-30T03:48:01.272Z,1009.61
2019-04-30T03:49:01.280Z,1009.55
2019-04-30T03:50:01.254Z,1009.55
2019-04-30T03:51:01.367Z,1009.67
2019-04-30T03:52:01.228Z,1009.61
2019-04-30T03:53:01.211Z,1009.70
2019-04-30T03:54:01.217Z,1009.69
2019-04-30T03:55:02.913Z,1009.67
2019-04-30T03:56:01.547Z,1009.73
2019-04-30T03:57:01.244Z,1009.70
2019-04-30T03:58:01.157Z,1009.68
2019-04-30T03:59:01.165Z,1009.67
2019-04-30T04:00:01.131Z,1009.70
2019-04-30T04:01:01.155Z,1009.70
2019-04-30T04:02:01.108Z,1009.72
2019-04-30T04:03:01.097Z,1009.73
2019-04-30T04:04:01.084Z,1009.73
2019-04-30T04:05:01.325Z,1009.73
2019-04-30T04:06:01.064Z,1009.72
2019-04-30T04:07:01.052Z,1009.73
2019-04-30T04:08:01.041Z,1009.69
2019-04-30T04:09:01.031Z,1009.73
2019-04-30T04:10:01.039Z,1009.71
2019-04-30T04:11:01.008Z,1009.72
2019-04-30T04:12:00.997Z,1009.70
2019-04-30T04:13:00.987Z,1009.76
2019-04-30T04:14:00.976Z,1009.73
2019-04-30T04:15:03.965Z,1009.74
2019-04-30T04:16:00.963Z,1009.71
2019-04-30T04:17:00.942Z,1009.72
2019-04-30T04:18:00.939Z,1009.71
2019-04-30T04:19:02.932Z,1009.71
2019-04-30T04:20:00.904Z,1009.70
2019-04-30T04:21:12.136Z,1009.70
2019-04-30T04:22:04.153Z,1009.75
2019-04-30T04:23:00.871Z,1009.74
2019-04-30T04:24:00.870Z,1009.78
2019-04-30T04:25:00.849Z,1009.74
2019-04-30T04:26:00.847Z,1009.67
2019-04-30T04:27:00.868Z,1009.70
2019-04-30T04:28:00.816Z,1009.79
2019-04-30T04:29:00.803Z,1009.72
2019-04-30T04:30:01.398Z,1009.71
2019-04-30T04:31:00.782Z,1009.73
2019-04-30T04:32:00.937Z,1009.81
2019-04-30T04:33:00.760Z,1009.72
2019-04-30T04:34:00.751Z,1009.79
2019-04-30T04:35:00.772Z,1009.72
2019-04-30T04:36:00.731Z,1009.70
2019-04-30T04:37:00.740Z,1009.70
2019-04-30T04:38:00.720Z,1009.69
2019-04-30T04:39:00.691Z,1009.71
2019-04-30T04:40:00.681Z,1009.73
2019-04-30T04:41:03.040Z,1009.76
2019-04-30T04:42:00.673Z,1009.72
2019-04-30T04:43:00.668Z,1009.72
2019-04-30T04:44:00.637Z,1009.77
2019-04-30T04:45:00.628Z,1009.77
2019-04-30T04:46:00.619Z,1009.72
2019-04-30T04:47:00.601Z,1009.75
2019-04-30T04:48:00.594Z,1009.73
2019-04-30T04:49:00.596Z,1009.80
2019-04-30T04:50:00.931Z,1009.80
2019-04-30T04:51:00.557Z,1009.81
2019-04-30T04:52:00.542Z,1009.77
2019-04-30T04:53:00.531Z,1009.85
2019-04-30T04:54:03.233Z,1009.82
2019-04-30T04:55:00.790Z,1009.90
2019-04-30T04:56:00.502Z,1009.87
2019-04-30T04:57:13.951Z,1009.90
2019-04-30T04:58:01.473Z,1009.88
2019-04-30T04:59:00.486Z,1009.91
2019-04-30T05:00:06.795Z,1009.86
2019-04-30T05:01:01.445Z,1009.87
2019-04-30T05:02:00.429Z,1009.90
2019-04-30T05:03:00.419Z,1009.94
2019-04-30T05:04:00.415Z,1009.92
2019-04-30T05:05:00.420Z,1009.94
2019-04-30T05:06:02.608Z,1009.91
2019-04-30T05:07:00.374Z,1009.96
2019-04-30T05:08:00.362Z,1009.93
2019-04-30T05:09:01.665Z,1009.92
2019-04-30T05:10:01.026Z,1009.92
2019-04-30T05:11:00.348Z,1009.96
2019-04-30T05:12:00.314Z,1009.96
2019-04-30T05:13:00.304Z,1010.01
2019-04-30T05:14:00.292Z,1009.94
2019-04-30T05:15:00.283Z,1009.99
2019-04-30T05:16:00.307Z,1010.03
2019-04-30T05:17:00.259Z,1010.01
2019-04-30T05:18:00.248Z,1010.01
2019-04-30T05:19:01.174Z,1010.06
2019-04-30T05:20:00.226Z,1010.03
2019-04-30T05:21:00.455Z,1010.11
2019-04-30T05:22:00.203Z,1010.05
2019-04-30T05:23:00.192Z,1010.08
2019-04-30T05:24:00.179Z,1010.00
2019-04-30T05:25:00.178Z,1010.07
2019-04-30T05:26:00.154Z,1010.03
2019-04-30T05:27:00.165Z,1010.01
2019-04-30T05:28:00.132Z,1010.04
2019-04-30T05:29:00.121Z,1010.04
2019-04-30T05:30:00.109Z,1010.01
2019-04-30T05:31:00.097Z,1010.01
2019-04-30T05:32:00.105Z,1010.05
2019-04-30T05:33:00.074Z,1010.01
2019-04-30T05:34:00.061Z,1010.03
2019-04-30T05:35:00.047Z,1010.05
2019-04-30T05:36:00.038Z,1010.09
2019-04-30T05:37:01.024Z,1010.07
2019-04-30T05:38:00.013Z,1010.10
2019-04-30T05:39:00.001Z,1010.09
2019-04-30T05:40:00.993Z,1010.12
2019-04-30T05:40:59.987Z,1010.11
2019-04-30T05:41:59.966Z,1010.20
2019-04-30T05:43:00.407Z,1010.22
2019-04-30T05:43:59.945Z,1010.20
2019-04-30T05:44:59.930Z,1010.22
2019-04-30T05:45:59.918Z,1010.18
2019-04-30T05:46:59.906Z,1010.24
2019-04-30T05:47:59.896Z,1010.30
2019-04-30T05:48:59.905Z,1010.23
2019-04-30T05:49:59.870Z,1010.26
2019-04-30T05:50:59.857Z,1010.24
2019-04-30T05:51:59.845Z,1010.32
2019-04-30T05:52:59.833Z,1010.31
2019-04-30T05:53:59.847Z,1010.34
2019-04-30T05:55:00.144Z,1010.29
2019-04-30T05:55:59.804Z,1010.35
2019-04-30T05:56:59.789Z,1010.28
2019-04-30T05:58:01.551Z,1010.32
2019-04-30T05:58:59.784Z,1010.26
2019-04-30T05:59:59.759Z,1010.32
2019-04-30T06:00:59.956Z,1010.34
2019-04-30T06:01:59.729Z,1010.36
2019-04-30T06:02:59.718Z,1010.39
2019-04-30T06:03:59.704Z,1010.28
2019-04-30T06:04:59.715Z,1010.37
2019-04-30T06:05:59.685Z,1010.35
2019-04-30T06:06:59.668Z,1010.33
2019-04-30T06:07:59.658Z,1010.34
2019-04-30T06:09:06.275Z,1010.37
2019-04-30T06:10:00.990Z,1010.40
2019-04-30T06:10:59.792Z,1010.39
2019-04-30T06:11:59.609Z,1010.32
2019-04-30T06:12:59.603Z,1010.33
2019-04-30T06:13:59.590Z,1010.28
2019-04-30T06:14:59.580Z,1010.37
2019-04-30T06:15:59.595Z,1010.35
2019-04-30T06:16:59.759Z,1010.38
2019-04-30T06:18:08.423Z,1010.39
2019-04-30T06:19:00.528Z,1010.40
2019-04-30T06:19:59.518Z,1010.47
2019-04-30T06:20:59.574Z,1010.41
2019-04-30T06:22:07.226Z,1010.41
2019-04-30T06:23:00.534Z,1010.42
2019-04-30T06:23:59.474Z,1010.45
2019-04-30T06:24:59.576Z,1010.43
2019-04-30T06:26:08.688Z,1010.43
2019-04-30T06:27:00.454Z,1010.38
2019-04-30T06:27:59.427Z,1010.35
2019-04-30T06:28:59.417Z,1010.42
2019-04-30T06:29:59.402Z,1010.46
2019-04-30T06:30:59.392Z,1010.42
2019-04-30T06:31:59.423Z,1010.45
2019-04-30T06:32:59.432Z,1010.42
2019-04-30T06:33:59.363Z,1010.54
2019-04-30T06:34:59.371Z,1010.56
2019-04-30T06:35:59.339Z,1010.42
2019-04-30T06:36:59.614Z,1010.42
2019-04-30T06:37:59.329Z,1010.43
2019-04-30T06:38:59.302Z,1010.45
2019-04-30T06:39:59.288Z,1010.49
2019-04-30T06:40:59.276Z,1010.52
2019-04-30T06:42:06.866Z,1010.53
2019-04-30T06:43:00.769Z,1010.81
2019-04-30T06:43:59.241Z,1010.74
2019-04-30T06:44:59.232Z,1010.57
2019-04-30T06:45:59.223Z,1010.66
2019-04-30T06:47:01.272Z,1010.52
2019-04-30T06:47:59.212Z,1010.77
2019-04-30T06:48:59.562Z,1010.76
2019-04-30T06:50:01.279Z,1010.75
2019-04-30T06:50:59.321Z,1010.80
2019-04-30T06:51:59.149Z,1010.89
2019-04-30T06:53:01.399Z,1010.86
2019-04-30T06:53:59.149Z,1010.85
2019-04-30T06:54:59.643Z,1010.78
2019-04-30T06:55:59.156Z,1010.51
2019-04-30T06:56:59.640Z,1010.59
2019-04-30T06:58:11.548Z,1010.91
2019-04-30T06:59:00.418Z,1010.94
2019-04-30T06:59:59.585Z,1010.78
2019-04-30T07:00:59.631Z,1010.87
2019-04-30T07:01:59.091Z,1010.61
2019-04-30T07:02:59.170Z,1010.54
2019-04-30T07:04:00.937Z,1010.52
2019-04-30T07:04:59.019Z,1010.53
2019-04-30T07:05:58.988Z,1010.50
2019-04-30T07:06:59.104Z,1010.56
2019-04-30T07:08:02.240Z,1010.51
2019-04-30T07:08:59.954Z,1010.49
2019-04-30T07:10:01.114Z,1010.58
2019-04-30T07:11:00.072Z,1010.49
2019-04-30T07:11:59.933Z,1010.51
2019-04-30T07:12:59.048Z,1010.53
2019-04-30T07:14:00.001Z,1010.54
2019-04-30T07:14:59.244Z,1010.56
2019-04-30T07:15:58.985Z,1010.48
2019-04-30T07:16:59.403Z,1010.53
2019-04-30T07:17:59.186Z,1010.58
2019-04-30T07:18:58.837Z,1010.44
2019-04-30T07:19:59.674Z,1010.48
2019-04-30T07:20:58.816Z,1010.45
2019-04-30T07:21:59.428Z,1010.53
2019-04-30T07:23:03.012Z,1010.52
2019-04-30T07:23:59.729Z,1010.51
2019-04-30T07:24:59.586Z,1010.51
2019-04-30T07:25:59.119Z,1010.57
2019-04-30T07:27:02.580Z,1011.07
2019-04-30T07:27:59.812Z,1011.11
2019-04-30T07:28:59.795Z,1011.16
2019-04-30T07:29:59.614Z,1011.17
2019-04-30T07:31:10.618Z,1011.22
2019-04-30T07:31:59.728Z,1010.82
2019-04-30T07:32:59.668Z,1010.77
2019-04-30T07:33:59.457Z,1011.10
2019-04-30T07:34:59.456Z,1011.10
2019-04-30T07:36:01.519Z,1011.28
2019-04-30T07:37:11.912Z,1011.39
2019-04-30T07:38:04.566Z,1011.10
2019-04-30T07:39:00.103Z,1011.35
2019-04-30T07:39:59.033Z,1011.39
2019-04-30T07:40:59.150Z,1011.45
2019-04-30T07:41:59.935Z,1011.41
2019-04-30T07:42:59.192Z,1011.41
2019-04-30T07:43:59.353Z,1011.51
2019-04-30T07:45:59.856Z,1011.49
2019-04-30T07:46:59.410Z,1011.49
2019-04-30T07:47:59.408Z,1011.53
2019-04-30T07:48:59.937Z,1011.46
2019-04-30T07:50:00.749Z,1011.50
2019-04-30T07:50:59.232Z,1011.61
2019-04-30T07:52:00.950Z,1011.59
2019-04-30T07:53:05.415Z,1011.55
2019-04-30T07:53:59.513Z,1011.47
2019-04-30T07:55:00.677Z,1011.45
2019-04-30T07:55:58.868Z,1011.45
2019-04-30T07:57:00.347Z,1011.52
2019-04-30T07:57:59.114Z,1011.50
2019-04-30T07:59:00.738Z,1011.50
2019-04-30T08:00:00.512Z,1011.59
2019-04-30T08:00:59.336Z,1011.10
2019-04-30T08:02:07.534Z,1011.00
2019-04-30T08:02:59.843Z,1010.92
2019-04-30T08:03:59.039Z,1010.95
2019-04-30T08:04:59.855Z,1010.96
2019-04-30T08:05:59.852Z,1011.11
2019-04-30T08:06:59.708Z,1011.45
2019-04-30T08:08:16.792Z,1011.09
2019-04-30T08:09:00.841Z,1011.27
2019-04-30T08:09:35.037Z,1011.47
2019-04-30T08:09:58.965Z,1011.00
2019-04-30T08:10:59.181Z,1010.96
2019-04-30T08:11:58.991Z,1011.34
2019-04-30T08:13:08.473Z,1011.19
2019-04-30T08:13:59.489Z,1011.50
2019-04-30T08:14:59.459Z,1011.54
2019-04-30T08:15:59.671Z,1011.64
2019-04-30T08:16:58.952Z,1011.59
2019-04-30T08:18:03.424Z,1011.62
2019-04-30T08:18:59.292Z,1011.63
2019-04-30T08:19:58.766Z,1011.65
2019-04-30T08:20:59.045Z,1011.67
2019-04-30T08:21:58.654Z,1011.63
2019-04-30T08:23:03.082Z,1011.67
2019-04-30T08:24:01.036Z,1011.61
2019-04-30T08:24:58.714Z,1011.61
2019-04-30T08:25:58.743Z,1011.60
2019-04-30T08:26:59.105Z,1011.52
2019-04-30T08:27:59.158Z,1011.55
2019-04-30T08:28:59.749Z,1011.49
2019-04-30T08:29:59.203Z,1011.60
2019-04-30T08:30:58.924Z,1011.59
2019-04-30T08:31:59.320Z,1011.52
2019-04-30T08:32:59.578Z,1011.58
2019-04-30T08:33:59.148Z,1011.60
2019-04-30T08:35:00.978Z,1011.68
2019-04-30T08:36:00.820Z,1011.67
2019-04-30T08:36:59.442Z,1011.64
2019-04-30T08:37:59.032Z,1011.62
2019-04-30T08:38:59.689Z,1011.58
2019-04-30T08:39:59.801Z,1011.64
2019-04-30T08:41:00.633Z,1011.56
2019-04-30T08:41:59.894Z,1011.57
2019-04-30T08:42:59.472Z,1011.65
2019-04-30T08:43:59.765Z,1011.67
2019-04-30T08:44:58.563Z,1011.60
2019-04-30T08:45:59.465Z,1011.56
2019-04-30T08:46:59.038Z,1011.60
2019-04-30T08:47:59.046Z,1011.70
2019-04-30T08:48:58.722Z,1011.58
2019-04-30T08:50:01.590Z,1011.20
2019-04-30T08:50:59.166Z,1011.09
2019-04-30T08:51:58.704Z,1011.06
2019-04-30T08:52:59.650Z,1011.14
2019-04-30T08:53:58.691Z,1011.60
2019-04-30T08:55:10.786Z,1011.62
2019-04-30T08:55:59.230Z,1011.29
2019-04-30T08:56:59.420Z,1011.50
2019-04-30T08:58:09.700Z,1011.12
2019-04-30T08:58:59.403Z,1011.48
2019-04-30T08:59:58.647Z,1011.49
2019-04-30T09:00:58.789Z,1011.50
2019-04-30T09:02:00.023Z,1011.46
2019-04-30T09:02:59.346Z,1011.45
2019-04-30T09:03:59.782Z,1010.91
2019-04-30T09:05:00.254Z,1011.47
2019-04-30T09:05:58.964Z,1011.00
2019-04-30T09:06:57.667Z,1011.43
2019-04-30T09:07:59.717Z,1011.47
2019-04-30T09:08:59.309Z,1011.37
2019-04-30T09:09:58.520Z,1011.46
2019-04-30T09:10:59.457Z,1011.46
2019-04-30T09:11:59.125Z,1011.45
2019-04-30T09:12:59.600Z,1011.34
2019-04-30T09:13:58.495Z,1011.27
2019-04-30T09:14:59.131Z,1011.05
2019-04-30T09:15:59.357Z,1011.36
2019-04-30T09:16:59.412Z,1011.26
2019-04-30T09:18:03.267Z,1011.35
2019-04-30T09:18:59.481Z,1011.26
2019-04-30T09:19:58.937Z,1011.23
2019-04-30T09:21:05.497Z,1011.33
2019-04-30T09:21:59.084Z,1011.29
2019-04-30T09:22:59.395Z,1011.27
2019-04-30T09:23:59.306Z,1011.31
2019-04-30T09:24:59.071Z,1011.35
2019-04-30T09:25:58.594Z,1011.36
2019-04-30T09:26:59.066Z,1011.34
2019-04-30T09:27:58.818Z,1011.41
2019-04-30T09:28:59.162Z,1011.36
2019-04-30T09:29:58.789Z,1011.40
2019-04-30T09:30:58.641Z,1011.37
2019-04-30T09:31:59.249Z,1011.37
2019-04-30T09:32:59.386Z,1011.39
2019-04-30T09:33:58.824Z,1011.34
2019-04-30T09:34:58.723Z,1011.36
2019-04-30T09:35:59.406Z,1011.34
2019-04-30T09:36:58.931Z,1011.35
2019-04-30T09:38:01.629Z,1011.37
2019-04-30T09:38:58.744Z,1011.33
2019-04-30T09:39:59.103Z,1011.39
2019-04-30T09:40:59.271Z,1011.42
2019-04-30T09:41:59.437Z,1011.39
2019-04-30T09:42:58.535Z,1011.39
2019-04-30T09:43:57.323Z,1011.37
2019-04-30T09:44:59.632Z,1011.37
2019-04-30T09:45:59.149Z,1011.42
2019-04-30T09:46:58.858Z,1011.37
2019-04-30T09:48:47.166Z,1011.35
2019-04-30T09:49:49.206Z,1011.31
2019-04-30T09:50:49.037Z,1011.40
2019-04-30T09:51:49.201Z,1011.33
2019-04-30T09:52:47.153Z,1011.34
2019-04-30T09:53:56.715Z,1011.34
2019-04-30T09:54:50.022Z,1011.34
2019-04-30T09:55:47.094Z,1011.36
2019-04-30T09:56:49.218Z,1011.38
2019-04-30T09:57:48.806Z,1010.79
2019-04-30T09:58:49.136Z,1011.33
2019-04-30T09:59:48.637Z,1011.34
2019-04-30T10:00:48.517Z,1011.27
2019-04-30T10:01:47.035Z,1011.17
2019-04-30T10:02:48.819Z,1011.16
2019-04-30T10:03:47.508Z,1011.21
2019-04-30T10:04:47.446Z,1011.28
2019-04-30T10:05:48.960Z,1011.25
2019-04-30T10:06:49.946Z,1011.09
2019-04-30T10:07:46.974Z,1010.76
2019-04-30T10:08:49.285Z,1011.17
2019-04-30T10:09:50.634Z,1011.17
2019-04-30T10:10:48.629Z,1011.14
2019-04-30T10:11:49.894Z,1011.15
2019-04-30T10:12:46.921Z,1011.07
2019-04-30T10:13:46.909Z,1011.07
2019-04-30T10:14:46.905Z,1011.02
2019-04-30T10:15:50.013Z,1011.05
2019-04-30T10:16:46.881Z,1010.96
2019-04-30T10:17:46.889Z,1011.02
2019-04-30T10:18:46.860Z,1010.99
2019-04-30T10:19:46.850Z,1010.96
2019-04-30T10:20:46.838Z,1010.95
2019-04-30T10:21:48.832Z,1011.00
2019-04-30T10:22:46.834Z,1011.00
2019-04-30T10:23:46.807Z,1010.97
2019-04-30T10:24:46.799Z,1011.00
2019-04-30T10:25:46.786Z,1010.89
2019-04-30T10:26:46.775Z,1010.92
2019-04-30T10:27:46.836Z,1010.93
2019-04-30T10:28:46.763Z,1010.85
2019-04-30T10:29:46.746Z,1010.90
2019-04-30T10:30:46.738Z,1010.88
2019-04-30T10:31:48.847Z,1010.84
2019-04-30T10:32:49.880Z,1010.86
2019-04-30T10:33:48.490Z,1010.81
2019-04-30T10:34:46.698Z,1010.80
2019-04-30T10:35:46.690Z,1010.79
2019-04-30T10:36:46.681Z,1010.76
2019-04-30T10:37:48.128Z,1010.80
2019-04-30T10:38:46.658Z,1010.76
2019-04-30T10:39:48.800Z,1010.77
2019-04-30T10:40:48.627Z,1010.30
2019-04-30T10:41:46.629Z,1010.74
2019-04-30T10:42:48.752Z,1010.71
2019-04-30T10:43:46.611Z,1010.66
2019-04-30T10:44:46.631Z,1010.65
2019-04-30T10:45:48.103Z,1010.66
2019-04-30T10:46:46.592Z,1010.64
2019-04-30T10:47:46.569Z,1010.65
2019-04-30T10:48:46.557Z,1010.71
2019-04-30T10:49:48.568Z,1010.66
2019-04-30T10:50:46.554Z,1010.72
2019-04-30T10:51:46.526Z,1010.68
2019-04-30T10:52:46.513Z,1010.66
2019-04-30T10:53:46.506Z,1010.67
2019-04-30T10:54:46.493Z,1010.65
2019-04-30T10:55:48.447Z,1010.63
2019-04-30T10:56:46.477Z,1010.42
2019-04-30T10:57:46.461Z,1010.50
2019-04-30T10:58:46.451Z,1010.52
2019-04-30T10:59:46.481Z,1010.55
2019-04-30T11:00:46.464Z,1010.53
2019-04-30T11:01:46.443Z,1010.48
2019-04-30T11:02:46.417Z,1010.43
2019-04-30T11:03:46.409Z,1010.39
2019-04-30T11:04:46.396Z,1010.39
2019-04-30T11:05:46.383Z,1010.53
2019-04-30T11:06:46.400Z,1010.49
2019-04-30T11:07:46.375Z,1010.53
2019-04-30T11:08:46.355Z,1010.50
2019-04-30T11:09:46.344Z,1010.57
2019-04-30T11:10:46.335Z,1010.42
2019-04-30T11:11:46.326Z,1010.46
2019-04-30T11:12:46.336Z,1010.37
2019-04-30T11:13:46.311Z,1010.36
2019-04-30T11:14:46.298Z,1010.38
2019-04-30T11:15:46.291Z,1010.36
2019-04-30T11:16:46.501Z,1010.38
2019-04-30T11:17:46.472Z,1010.34
2019-04-30T11:18:46.506Z,1010.40
2019-04-30T11:19:46.406Z,1010.37
2019-04-30T11:20:46.357Z,1010.40
2019-04-30T11:21:46.425Z,1010.35
2019-04-30T11:22:46.226Z,1010.32
2019-04-30T11:23:46.442Z,1010.36
2019-04-30T11:24:56.466Z,1010.38
2019-04-30T11:25:48.400Z,1010.37
2019-04-30T11:26:46.806Z,1010.36
2019-04-30T11:27:46.568Z,1010.04
2019-04-30T11:28:46.417Z,1009.94
2019-04-30T11:29:46.423Z,1010.38
2019-04-30T11:30:46.314Z,1010.27
2019-04-30T11:31:46.393Z,1010.20
2019-04-30T11:32:46.291Z,1010.10
2019-04-30T11:33:46.454Z,1010.17
2019-04-30T11:34:46.121Z,1010.05
2019-04-30T11:35:46.088Z,1010.13
2019-04-30T11:36:46.078Z,1010.12
2019-04-30T11:37:46.069Z,1010.14
2019-04-30T11:38:46.058Z,1010.18
2019-04-30T11:39:46.378Z,1010.17
2019-04-30T11:40:46.035Z,1010.06
2019-04-30T11:41:46.030Z,1010.06
2019-04-30T11:42:46.015Z,1010.08
2019-04-30T11:43:46.004Z,1010.11
2019-04-30T11:44:45.996Z,1010.10
2019-04-30T11:45:46.000Z,1010.09
2019-04-30T11:46:45.972Z,1010.11
2019-04-30T11:47:53.248Z,1010.03
2019-04-30T11:48:48.877Z,1010.07
2019-04-30T11:49:45.938Z,1010.03
2019-04-30T11:50:45.972Z,1009.92
2019-04-30T11:51:45.921Z,1010.07
2019-04-30T11:52:45.910Z,1010.05
2019-04-30T11:53:45.903Z,1009.99
2019-04-30T11:54:51.434Z,1009.96
2019-04-30T11:55:49.038Z,1009.92
2019-04-30T11:56:45.868Z,1009.85
2019-04-30T11:57:45.948Z,1009.91
2019-04-30T11:58:45.847Z,1009.83
2019-04-30T11:59:45.834Z,1009.79
2019-04-30T12:00:45.825Z,1009.84
2019-04-30T12:01:45.832Z,1009.80
2019-04-30T12:02:45.802Z,1009.71
2019-04-30T12:03:45.795Z,1009.74
2019-04-30T12:04:45.789Z,1009.62
2019-04-30T12:05:45.779Z,1009.69